createdAt,value
2018-10-03T00:04:04.162Z,11.75
2018-10-03T00:08:44.117Z,9.28
2018-10-03T00:13:24.930Z,8.33
2018-10-03T00:18:04.861Z,10.10
2018-10-03T00:22:45.002Z,8.38
2018-10-03T00:27:25.786Z,9.80
2018-10-03T00:32:05.810Z,8.45
2018-10-03T00:36:45.692Z,8.08
2018-10-03T00:41:25.732Z,11.10
2018-10-03T00:46:05.789Z,11.50
2018-10-03T00:50:45.887Z,10.65
2018-10-03T00:55:25.672Z,10.72
2018-10-03T01:00:05.942Z,13.28
2018-10-03T01:04:45.708Z,11.55
2018-10-03T01:09:26.157Z,13.40
2018-10-03T01:14:06.416Z,13.25
2018-10-03T01:18:46.329Z,12.25
2018-10-03T01:23:26.493Z,12.47
2018-10-03T01:28:06.445Z,11.85
2018-10-03T01:32:46.418Z,11.35
2018-10-03T01:37:26.965Z,13.95
2018-10-03T01:42:07.936Z,16.05
2018-10-03T01:46:47.793Z,12.78
2018-10-03T01:51:27.738Z,12.03
2018-10-03T01:56:07.749Z,12.55
2018-10-03T02:00:48.205Z,15.18
2018-10-03T02:05:28.308Z,12.98
2018-10-03T02:10:08.493Z,9.68
2018-10-03T02:14:49.511Z,11.12
2018-10-03T02:19:29.778Z,11.88
2018-10-03T02:24:09.897Z,13.48
2018-10-03T02:28:50.010Z,16.25
2018-10-03T02:33:29.945Z,11.18
2018-10-03T02:38:09.774Z,10.40
2018-10-03T02:42:49.893Z,14.23
2018-10-03T02:47:30.692Z,9.23
2018-10-03T02:52:10.816Z,10.38
2018-10-03T02:56:50.584Z,13.62
2018-10-03T03:01:30.797Z,11.73
2018-10-03T03:06:11.513Z,14.28
2018-10-03T03:10:52.165Z,13.13
2018-10-03T03:15:32.191Z,13.00
2018-10-03T03:20:12.155Z,14.20
2018-10-03T03:24:52.106Z,12.93
2018-10-03T03:29:32.040Z,13.22
2018-10-03T03:34:12.319Z,14.55
2018-10-03T03:38:52.176Z,15.48
2018-10-03T03:43:32.889Z,11.85
2018-10-03T03:48:12.945Z,13.43
2018-10-03T03:52:52.909Z,13.08
2018-10-03T03:57:33.127Z,12.85
2018-10-03T04:02:13.240Z,12.30
2018-10-03T04:06:53.583Z,13.25
2018-10-03T04:11:33.704Z,14.50
2018-10-03T04:16:13.739Z,12.95
2018-10-03T04:20:53.986Z,14.13
2018-10-03T04:25:34.640Z,15.53
2018-10-03T04:30:14.843Z,17.55
2018-10-03T04:34:56.088Z,18.65
2018-10-03T04:39:36.033Z,20.32
2018-10-03T04:44:16.095Z,18.37
2018-10-03T04:48:56.576Z,20.10
2018-10-03T04:53:36.732Z,25.55
2018-10-03T04:58:16.769Z,21.07
2018-10-03T05:02:56.954Z,19.20
2018-10-03T05:07:36.920Z,21.75
2018-10-03T05:12:17.961Z,23.62
2018-10-03T05:16:58.410Z,19.67
2018-10-03T05:21:39.284Z,17.67
2018-10-03T05:26:19.156Z,20.92
2018-10-03T05:30:59.154Z,18.60
2018-10-03T05:35:39.526Z,20.05
2018-10-03T05:40:19.697Z,21.02
2018-10-03T05:44:59.801Z,18.90
2018-10-03T05:49:39.481Z,21.60
2018-10-03T05:54:20.106Z,21.68
2018-10-03T05:59:00.724Z,22.58
2018-10-03T06:03:41.352Z,25.70
2018-10-03T06:08:22.901Z,23.67
2018-10-03T06:13:02.709Z,19.90
2018-10-03T06:17:43.544Z,24.72
2018-10-03T06:22:23.457Z,20.68
2018-10-03T06:27:04.672Z,25.20
2018-10-03T06:31:44.661Z,21.15
2018-10-03T06:36:24.628Z,21.25
2018-10-03T06:41:04.469Z,22.82
2018-10-03T06:45:44.703Z,21.97
2018-10-03T06:50:24.728Z,22.65
2018-10-03T06:55:05.009Z,19.90
2018-10-03T06:59:44.993Z,19.25
2018-10-03T07:04:25.153Z,26.80
2018-10-03T07:09:06.581Z,21.42
2018-10-03T07:13:46.448Z,26.90
2018-10-03T07:18:27.052Z,19.87
2018-10-03T07:23:07.023Z,20.70
2018-10-03T07:27:47.652Z,19.65
2018-10-03T07:32:27.758Z,22.20
2018-10-03T07:37:07.445Z,24.35
2018-10-03T07:41:48.049Z,20.75
2018-10-03T07:46:28.277Z,25.37
2018-10-03T07:51:08.655Z,23.27
2018-10-03T07:55:48.856Z,21.93
2018-10-03T08:00:35.285Z,18.95
2018-10-03T08:05:15.293Z,21.20
2018-10-03T08:09:55.303Z,14.58
2018-10-03T08:14:35.351Z,16.82
2018-10-03T08:19:15.198Z,14.80
2018-10-03T08:23:55.092Z,14.80
2018-10-03T08:28:35.097Z,17.10
2018-10-03T08:33:15.069Z,12.75
2018-10-03T08:37:55.043Z,15.05
2018-10-03T08:42:36.356Z,12.75
2018-10-03T08:47:16.736Z,15.32
2018-10-03T08:51:56.608Z,14.03
2018-10-03T08:56:36.809Z,12.35
2018-10-03T09:01:17.459Z,24.00
2018-10-03T09:05:57.489Z,14.45
2018-10-03T09:10:37.536Z,15.80
2018-10-03T09:15:17.359Z,11.20
2018-10-03T09:19:58.164Z,12.93
2018-10-03T09:24:38.232Z,12.03
2018-10-03T09:29:18.320Z,15.30
2018-10-03T09:33:58.371Z,12.40
2018-10-03T09:38:38.312Z,13.28
2018-10-03T09:43:18.392Z,13.85
2018-10-03T09:47:58.754Z,13.72
2018-10-03T09:52:40.327Z,11.28
2018-10-03T09:57:20.333Z,9.65
2018-10-03T10:02:03.544Z,12.50
2018-10-03T10:06:44.713Z,10.93
2018-10-03T10:11:24.720Z,8.05
2018-10-03T10:16:05.244Z,11.90
2018-10-03T10:20:45.420Z,8.38
2018-10-03T10:25:25.525Z,10.82
2018-10-03T10:30:06.617Z,10.25
2018-10-03T10:34:46.519Z,9.15
2018-10-03T10:39:27.190Z,12.28
2018-10-03T10:44:07.213Z,7.55
2018-10-03T10:48:47.932Z,16.97
2018-10-03T10:53:28.661Z,8.70
2018-10-03T10:58:09.353Z,7.40
2018-10-03T11:02:49.397Z,10.65
2018-10-03T11:07:29.789Z,7.97
2018-10-03T11:12:10.114Z,11.05
2018-10-03T11:16:50.100Z,17.12
2018-10-03T11:21:30.966Z,7.90
2018-10-03T11:26:10.886Z,10.53
2018-10-03T11:30:52.430Z,11.45
2018-10-03T11:35:32.489Z,7.85
2018-10-03T11:40:13.472Z,10.93
2018-10-03T11:44:54.143Z,9.20
2018-10-03T11:49:34.958Z,9.38
2018-10-03T11:54:15.341Z,9.00
2018-10-03T11:58:55.122Z,8.30
2018-10-03T12:03:35.432Z,19.48
2018-10-03T12:08:15.486Z,9.50
2018-10-03T12:12:55.833Z,5.67
2018-10-03T12:17:35.879Z,4.03
2018-10-03T12:22:16.195Z,7.12
2018-10-03T12:26:56.428Z,6.35
2018-10-03T12:31:36.282Z,6.47
2018-10-03T12:36:16.250Z,7.62
2018-10-03T12:40:56.131Z,9.25
2018-10-03T12:45:36.125Z,7.20
2018-10-03T12:50:16.290Z,9.83
2018-10-03T12:54:56.532Z,7.12
2018-10-03T12:59:37.056Z,8.40
2018-10-03T13:04:16.881Z,7.83
2018-10-03T13:08:58.073Z,5.92
2018-10-03T13:13:38.996Z,8.45
2018-10-03T13:18:19.532Z,6.15
2018-10-03T13:22:59.233Z,8.78
2018-10-03T13:27:39.567Z,7.70
2018-10-03T13:32:20.077Z,14.38
2018-10-03T13:37:00.036Z,10.08
2018-10-03T13:41:40.153Z,16.10
2018-10-03T13:46:19.932Z,14.83
2018-10-03T13:51:02.428Z,13.45
2018-10-03T13:55:42.290Z,24.07
2018-10-03T14:00:22.161Z,16.37
2018-10-03T14:05:01.985Z,13.68
2018-10-03T14:09:42.972Z,8.88
2018-10-03T14:14:22.819Z,15.78
2018-10-03T14:19:04.587Z,12.98
2018-10-03T14:23:45.097Z,14.28
2018-10-03T14:28:25.533Z,13.50
2018-10-03T14:33:05.663Z,8.43
2018-10-03T14:37:45.945Z,12.37
2018-10-03T14:42:26.165Z,12.37
2018-10-03T14:47:05.985Z,9.50
2018-10-03T14:51:46.044Z,9.50
2018-10-03T14:56:25.992Z,5.42
2018-10-03T15:01:10.441Z,6.10
2018-10-03T15:05:51.324Z,7.10
2018-10-03T15:10:32.128Z,7.00
2018-10-03T15:15:12.684Z,6.17
2018-10-03T15:19:53.516Z,7.22
2018-10-03T15:24:33.737Z,7.75
2018-10-03T15:29:13.391Z,7.35
2018-10-03T15:33:53.777Z,5.40
2018-10-03T15:38:34.484Z,12.23
2018-10-03T15:43:14.540Z,10.05
2018-10-03T15:47:55.372Z,7.78
2018-10-03T15:52:46.496Z,9.18
2018-10-03T15:57:27.998Z,8.80
2018-10-03T16:02:08.927Z,10.05
2018-10-03T16:06:49.278Z,11.00
2018-10-03T16:11:29.814Z,9.95
2018-10-03T16:16:09.812Z,9.15
2018-10-03T16:20:50.308Z,11.30
2018-10-03T16:25:32.542Z,10.25
2018-10-03T16:30:12.792Z,11.20
2018-10-03T16:34:53.791Z,6.97
2018-10-03T16:39:34.523Z,8.90
2018-10-03T16:44:15.599Z,7.60
2018-10-03T16:48:56.307Z,9.83
2018-10-03T16:53:36.521Z,7.50
2018-10-03T16:58:17.965Z,10.10
2018-10-03T17:02:58.469Z,12.20
2018-10-03T17:07:39.236Z,11.08
2018-10-03T17:12:19.641Z,12.93
2018-10-03T17:17:00.575Z,14.40
2018-10-03T17:21:41.060Z,15.65
2018-10-03T17:26:21.441Z,17.85
2018-10-03T17:31:02.130Z,11.03
2018-10-03T17:35:42.425Z,40.55
2018-10-03T17:40:23.350Z,106.58
2018-10-03T17:45:03.393Z,62.30
2018-10-03T17:49:44.305Z,67.08
2018-10-03T17:54:26.246Z,29.92
2018-10-03T17:59:07.105Z,36.33
2018-10-03T18:03:48.399Z,23.42
2018-10-03T18:13:34.042Z,24.37
2018-10-03T18:18:14.171Z,30.20
2018-10-03T18:22:54.757Z,25.12
2018-10-03T18:27:34.893Z,51.45
2018-10-03T18:32:15.810Z,25.88
2018-10-03T18:36:56.078Z,49.70
2018-10-03T18:41:37.533Z,57.25
2018-10-03T18:46:18.731Z,90.20
2018-10-03T18:50:58.690Z,55.55
2018-10-03T18:55:39.779Z,68.22
2018-10-03T19:00:23.305Z,71.57
2018-10-03T19:05:04.921Z,37.73
2018-10-03T19:09:49.238Z,23.00
2018-10-03T19:14:32.534Z,15.63
2018-10-03T19:19:13.574Z,21.95
2018-10-03T19:23:54.860Z,24.00
2018-10-03T19:28:36.034Z,30.55
2018-10-03T19:33:17.110Z,24.92
2018-10-03T19:37:57.742Z,26.68
2018-10-03T19:42:38.581Z,30.43
2018-10-03T19:47:20.163Z,34.03
2018-10-03T19:52:00.628Z,41.83
2018-10-03T19:56:40.856Z,28.47
2018-10-03T20:01:21.693Z,28.57
2018-10-03T20:06:02.471Z,24.37
2018-10-03T20:10:43.283Z,24.72
2018-10-03T20:15:23.713Z,25.77
2018-10-03T20:20:03.937Z,23.97
2018-10-03T20:24:45.724Z,23.50
2018-10-03T20:29:26.283Z,24.50
2018-10-03T20:34:07.280Z,20.72
2018-10-03T20:38:48.362Z,39.97
2018-10-03T20:43:29.968Z,40.77
2018-10-03T20:48:10.813Z,31.87
2018-10-03T20:52:53.091Z,33.77
2018-10-03T20:57:34.338Z,25.23
2018-10-03T21:02:15.713Z,22.40
2018-10-03T21:06:57.114Z,24.90
2018-10-03T21:11:38.338Z,27.70
2018-10-03T21:16:19.713Z,23.87
2018-10-03T21:21:00.365Z,80.63
2018-10-03T21:25:41.150Z,75.23
2018-10-03T21:30:22.414Z,86.90
2018-10-03T21:35:02.867Z,92.33
2018-10-03T21:39:43.792Z,39.77
2018-10-03T21:44:24.942Z,24.50
2018-10-03T21:49:06.434Z,26.87
2018-10-03T21:53:48.325Z,53.90
2018-10-03T21:58:29.415Z,46.77
2018-10-03T22:03:10.729Z,16.67
2018-10-03T22:07:51.527Z,15.77
2018-10-03T22:12:32.610Z,57.37
2018-10-03T22:17:18.429Z,43.97
2018-10-03T22:21:59.224Z,22.70
2018-10-03T22:26:39.825Z,49.17
2018-10-03T22:31:21.410Z,87.87
2018-10-03T22:36:01.616Z,68.03
2018-10-03T22:40:42.916Z,47.67
2018-10-03T22:45:24.511Z,81.03
2018-10-03T22:50:05.373Z,38.10
2018-10-03T22:54:45.505Z,45.33
2018-10-03T22:59:26.513Z,24.77
2018-10-03T23:04:07.654Z,30.67
2018-10-03T23:08:48.466Z,21.83
2018-10-03T23:13:29.697Z,29.80
2018-10-03T23:18:10.569Z,23.37
2018-10-03T23:22:51.432Z,68.83
2018-10-03T23:27:32.237Z,69.67
2018-10-03T23:32:14.349Z,60.37
2018-10-03T23:36:57.134Z,71.20
2018-10-03T23:41:38.524Z,60.60
2018-10-03T23:46:19.146Z,124.33
2018-10-03T23:50:59.906Z,69.77
2018-10-03T23:55:41.222Z,25.77
